Beachwood, New Jersey
Current Conditions -  °F | °C
As of 10:15 AM on Wednesday 22 Oct 2014 (Local Time) from KBLM Reporting Station
Overcast Overcast  
Wind Chill: 54°   Ceiling: 1500
Heat Index: 54°   Visibility: 9mi
Dew Point: 48°   Wind: 15mph
Humidity: 82%   Direction: 30°NNE
Pressure: 29.89"   Gusts: 21mph
Location:  39.92°N, 74.21°W
Report Text: KBLM 221415Z AUTO 03013G18KT 9SM SCT008 OVC015 12/09 A2989 RMK AO1 P0004
Loading
Personal Weather Stations






























Interactive Weather Map
Tropical Storm Tracking
New forecast layout! Learn more

10-Day Weather Forecast

Advertisements
Track Severe Weather on mobile